createdAt,value
2018-01-13T00:00:05.170Z,2.50
2018-01-13T00:02:33.600Z,2.50
2018-01-13T00:05:02.657Z,2.60
2018-01-13T00:07:31.865Z,2.60
2018-01-13T00:10:00.111Z,2.60
2018-01-13T00:12:29.127Z,2.70
2018-01-13T00:14:57.576Z,2.60
2018-01-13T00:17:25.837Z,2.70
2018-01-13T00:19:54.239Z,2.60
2018-01-13T00:22:22.480Z,2.60
2018-01-13T00:24:50.733Z,2.60
2018-01-13T00:27:19.019Z,2.40
2018-01-13T00:29:48.070Z,2.30
2018-01-13T00:32:17.098Z,2.40
2018-01-13T00:34:45.368Z,2.50
2018-01-13T00:37:13.597Z,2.50
2018-01-13T00:39:41.851Z,2.50
2018-01-13T00:42:10.182Z,2.50
2018-01-13T00:44:38.405Z,2.60
2018-01-13T00:47:06.674Z,2.60
2018-01-13T00:49:34.918Z,2.60
2018-01-13T00:52:03.159Z,2.60
2018-01-13T00:54:31.398Z,2.60
2018-01-13T00:57:00.525Z,2.70
2018-01-13T00:59:28.878Z,2.70
2018-01-13T01:01:57.102Z,2.80
2018-01-13T01:04:25.513Z,2.60
2018-01-13T01:06:54.514Z,2.50
2018-01-13T01:09:23.590Z,2.50
2018-01-13T01:11:51.886Z,2.50
2018-01-13T01:14:20.118Z,2.60
2018-01-13T01:16:48.353Z,2.60
2018-01-13T01:19:16.614Z,2.60
2018-01-13T01:21:45.612Z,2.50
2018-01-13T01:24:14.607Z,2.60
2018-01-13T01:26:42.895Z,2.50
2018-01-13T01:29:11.230Z,2.50
2018-01-13T01:31:39.622Z,2.60
2018-01-13T01:34:08.959Z,2.70
2018-01-13T01:36:37.266Z,2.70
2018-01-13T01:39:06.598Z,2.70
2018-01-13T01:41:35.699Z,2.70
2018-01-13T01:44:05.859Z,2.60
2018-01-13T01:46:34.400Z,2.60
2018-01-13T01:49:02.750Z,2.70
2018-01-13T01:51:31.770Z,2.70
2018-01-13T01:54:00.014Z,2.60
2018-01-13T01:56:29.063Z,2.70
2018-01-13T01:58:58.061Z,2.70
2018-01-13T02:01:26.297Z,2.70
2018-01-13T02:03:54.543Z,2.70
2018-01-13T02:06:22.765Z,2.70
2018-01-13T02:08:51.001Z,2.80
2018-01-13T02:11:19.345Z,2.80
2018-01-13T02:13:48.646Z,2.70
2018-01-13T02:16:16.877Z,2.70
2018-01-13T02:18:45.198Z,2.70
2018-01-13T02:21:13.433Z,2.70
2018-01-13T02:23:41.675Z,2.80
2018-01-13T02:26:09.955Z,2.80
2018-01-13T02:28:38.431Z,2.80
2018-01-13T02:31:06.689Z,2.70
2018-01-13T02:33:35.006Z,2.80
2018-01-13T02:36:03.269Z,2.90
2018-01-13T02:38:31.512Z,2.80
2018-01-13T02:40:59.823Z,2.80
2018-01-13T02:43:28.047Z,2.80
2018-01-13T02:45:57.048Z,2.70
2018-01-13T02:48:26.075Z,2.70
2018-01-13T02:50:55.519Z,2.70
2018-01-13T02:53:23.765Z,2.70
2018-01-13T02:55:52.102Z,2.80
2018-01-13T02:58:20.348Z,2.80
2018-01-13T03:00:48.571Z,2.80
2018-01-13T03:03:16.809Z,2.80
2018-01-13T03:05:45.799Z,2.80
2018-01-13T03:08:14.802Z,2.80
2018-01-13T03:10:43.836Z,2.80
2018-01-13T03:13:12.094Z,2.80
2018-01-13T03:15:41.096Z,2.90
2018-01-13T03:18:09.428Z,2.80
2018-01-13T03:20:37.774Z,2.90
2018-01-13T03:23:06.010Z,2.90
2018-01-13T03:25:34.265Z,2.90
2018-01-13T03:28:03.262Z,2.80
2018-01-13T03:30:32.310Z,2.80
2018-01-13T03:33:00.741Z,2.80
2018-01-13T03:35:29.807Z,2.80
2018-01-13T03:37:58.038Z,2.80
2018-01-13T03:40:26.345Z,2.90
2018-01-13T03:42:54.575Z,2.90
2018-01-13T03:45:23.558Z,2.80
2018-01-13T03:47:52.601Z,2.90
2018-01-13T03:50:20.820Z,2.90
2018-01-13T03:52:49.871Z,2.90
2018-01-13T03:55:18.160Z,2.90
2018-01-13T03:57:46.398Z,2.90
2018-01-13T04:00:14.731Z,2.80
2018-01-13T04:02:43.111Z,2.90
2018-01-13T04:05:11.382Z,2.90
2018-01-13T04:07:39.732Z,2.90
2018-01-13T04:10:08.073Z,2.90
2018-01-13T04:12:36.393Z,2.90
2018-01-13T04:15:04.670Z,2.90
2018-01-13T04:17:32.906Z,2.90
2018-01-13T04:20:01.162Z,2.90
2018-01-13T04:22:30.215Z,2.90
2018-01-13T04:24:58.489Z,2.80
2018-01-13T04:27:26.718Z,2.90
2018-01-13T04:29:54.950Z,2.90
2018-01-13T04:32:23.262Z,2.90
2018-01-13T04:34:52.291Z,2.90
2018-01-13T04:37:20.529Z,2.80
2018-01-13T04:39:49.534Z,2.90
2018-01-13T04:42:18.567Z,2.90
2018-01-13T04:44:46.798Z,2.90
2018-01-13T04:47:16.195Z,2.90
2018-01-13T04:49:44.425Z,2.90
2018-01-13T04:52:12.659Z,2.90
2018-01-13T04:54:41.987Z,2.90
2018-01-13T04:57:10.210Z,2.90
2018-01-13T04:59:38.514Z,2.90
2018-01-13T05:02:06.788Z,2.80
2018-01-13T05:04:35.787Z,2.80
2018-01-13T05:07:04.027Z,2.80
2018-01-13T05:09:32.305Z,2.80
2018-01-13T05:12:00.543Z,2.80
2018-01-13T05:14:28.773Z,2.80
2018-01-13T05:16:57.807Z,2.80
2018-01-13T05:19:26.211Z,2.80
2018-01-13T05:21:54.437Z,2.80
2018-01-13T05:24:22.775Z,2.80
2018-01-13T05:26:51.043Z,2.80
2018-01-13T05:29:19.274Z,2.80
2018-01-13T05:31:47.550Z,2.80
2018-01-13T05:34:15.779Z,2.80
2018-01-13T05:36:44.010Z,2.70
2018-01-13T05:39:12.347Z,2.80
2018-01-13T05:41:41.454Z,2.80
2018-01-13T05:44:10.443Z,2.80
2018-01-13T05:46:39.494Z,2.80
2018-01-13T05:49:07.730Z,2.80
2018-01-13T05:51:36.035Z,2.90
2018-01-13T05:54:04.327Z,2.90
2018-01-13T05:56:32.559Z,2.90
2018-01-13T05:59:00.806Z,2.90
2018-01-13T06:01:29.050Z,2.90
2018-01-13T06:03:57.489Z,2.90
2018-01-13T06:06:26.497Z,3.00
2018-01-13T06:08:55.517Z,3.00
2018-01-13T06:11:23.782Z,3.00
2018-01-13T06:13:52.234Z,3.00
2018-01-13T06:16:21.712Z,3.10
2018-01-13T06:18:49.935Z,3.10
2018-01-13T06:21:18.175Z,3.10
2018-01-13T06:23:47.375Z,3.10
2018-01-13T06:26:16.428Z,3.10
2018-01-13T06:28:44.668Z,3.10
2018-01-13T06:31:13.680Z,3.20
2018-01-13T06:33:41.902Z,3.10
2018-01-13T06:38:36.954Z,3.10
2018-01-13T06:41:05.186Z,3.20
2018-01-13T06:43:33.414Z,3.20
2018-01-13T06:46:01.670Z,3.20
2018-01-13T06:48:30.714Z,3.20
2018-01-13T06:50:58.988Z,3.20
2018-01-13T06:53:27.299Z,3.20
2018-01-13T06:55:56.286Z,3.20
2018-01-13T06:58:24.701Z,3.20
2018-01-13T07:00:53.073Z,3.20
2018-01-13T07:03:22.050Z,3.30
2018-01-13T07:05:51.060Z,3.30
2018-01-13T07:08:20.073Z,3.50
2018-01-13T07:10:48.350Z,3.40
2018-01-13T07:13:16.577Z,3.50
2018-01-13T07:15:44.843Z,3.60
2018-01-13T07:18:13.078Z,3.60
2018-01-13T07:20:41.373Z,3.70
2018-01-13T07:23:09.922Z,3.70
2018-01-13T07:25:38.169Z,3.70
2018-01-13T07:28:07.183Z,3.70
2018-01-13T07:30:35.555Z,3.70
2018-01-13T07:33:04.565Z,3.80
2018-01-13T07:35:32.822Z,3.80
2018-01-13T07:38:01.838Z,3.90
2018-01-13T07:42:56.793Z,3.90
2018-01-13T07:45:25.094Z,3.90
2018-01-13T07:47:53.335Z,3.90
2018-01-13T07:50:21.594Z,4.00
2018-01-13T07:52:50.086Z,4.00
2018-01-13T07:55:19.075Z,4.00
2018-01-13T07:57:47.332Z,3.90
2018-01-13T08:00:17.982Z,4.00
2018-01-13T08:02:46.219Z,4.00
2018-01-13T08:05:15.245Z,4.20
2018-01-13T08:07:43.667Z,4.10
2018-01-13T08:10:11.899Z,4.20
2018-01-13T08:12:40.131Z,4.10
2018-01-13T08:15:09.150Z,4.10
2018-01-13T08:17:37.382Z,4.10
2018-01-13T08:20:05.820Z,4.10
2018-01-13T08:22:34.858Z,4.10
2018-01-13T08:25:03.141Z,4.10
2018-01-13T08:27:31.393Z,4.10
2018-01-13T08:29:59.743Z,4.20
2018-01-13T08:32:27.986Z,4.10
2018-01-13T08:34:56.187Z,4.10
2018-01-13T08:37:24.432Z,4.20
2018-01-13T08:39:53.469Z,4.20
2018-01-13T08:42:28.538Z,4.20
2018-01-13T08:44:56.801Z,4.20
2018-01-13T08:47:25.103Z,4.20
2018-01-13T08:49:53.298Z,4.20
2018-01-13T08:52:22.417Z,4.20
2018-01-13T08:54:50.761Z,4.20
2018-01-13T08:57:19.016Z,4.20
2018-01-13T08:59:47.401Z,4.20
2018-01-13T09:02:15.759Z,4.20
2018-01-13T09:04:44.045Z,4.20
2018-01-13T09:07:12.318Z,4.20
2018-01-13T09:09:40.616Z,4.20
2018-01-13T09:12:08.851Z,4.20
2018-01-13T09:14:38.349Z,4.20
2018-01-13T09:17:06.577Z,4.20
2018-01-13T09:19:34.810Z,4.30
2018-01-13T09:22:03.075Z,4.30
2018-01-13T09:24:31.300Z,4.20
2018-01-13T09:26:59.530Z,4.20
2018-01-13T09:29:27.875Z,4.20
2018-01-13T09:31:56.854Z,4.20
2018-01-13T09:34:25.847Z,4.20
2018-01-13T09:36:54.206Z,4.20
2018-01-13T09:39:23.194Z,4.20
2018-01-13T09:41:51.471Z,4.20
2018-01-13T09:44:19.899Z,4.20
2018-01-13T09:46:48.145Z,4.20
2018-01-13T09:49:16.365Z,4.20
2018-01-13T09:51:44.702Z,4.20
2018-01-13T09:54:12.946Z,4.20
2018-01-13T09:56:42.011Z,4.20
2018-01-13T09:59:11.542Z,4.20
2018-01-13T10:01:39.802Z,4.20
2018-01-13T10:04:08.847Z,4.10
2018-01-13T10:06:37.188Z,4.10
2018-01-13T10:09:05.418Z,4.10
2018-01-13T10:11:34.433Z,4.20
2018-01-13T10:14:02.713Z,4.20
2018-01-13T10:16:31.750Z,4.10
2018-01-13T10:18:59.982Z,4.10
2018-01-13T10:21:28.281Z,4.20
2018-01-13T10:23:56.556Z,4.20
2018-01-13T10:26:24.790Z,4.20
2018-01-13T10:28:53.906Z,4.20
2018-01-13T10:31:22.237Z,4.20
2018-01-13T10:33:50.661Z,4.20
2018-01-13T10:36:19.064Z,4.20
2018-01-13T10:38:47.335Z,4.20
2018-01-13T10:41:15.666Z,4.20
2018-01-13T10:43:44.248Z,4.10
2018-01-13T10:46:12.562Z,4.20
2018-01-13T10:48:40.782Z,4.20
2018-01-13T10:51:09.046Z,4.10
2018-01-13T10:53:37.405Z,4.10
2018-01-13T10:56:05.697Z,4.10
2018-01-13T10:58:33.954Z,4.10
2018-01-13T11:01:02.245Z,4.00
2018-01-13T11:03:30.533Z,4.00
2018-01-13T11:05:58.874Z,4.00
2018-01-13T11:08:27.253Z,4.00
2018-01-13T11:10:55.640Z,4.00
2018-01-13T11:13:23.918Z,4.10
2018-01-13T11:15:52.366Z,4.20
2018-01-13T11:18:21.378Z,4.20
2018-01-13T11:20:49.659Z,4.10
2018-01-13T11:23:18.699Z,4.10
2018-01-13T11:25:47.209Z,4.10
2018-01-13T11:28:19.105Z,4.00
2018-01-13T11:30:52.166Z,4.00
2018-01-13T11:33:22.398Z,4.10
2018-01-13T11:35:50.626Z,4.10
2018-01-13T11:38:18.876Z,4.00
2018-01-13T11:40:47.269Z,4.00
2018-01-13T11:43:15.537Z,3.90
2018-01-13T11:45:43.793Z,3.90
2018-01-13T11:48:12.211Z,3.90
2018-01-13T11:50:40.663Z,3.90
2018-01-13T11:53:10.527Z,3.80
2018-01-13T11:55:38.980Z,3.80
2018-01-13T11:58:07.310Z,3.90
2018-01-13T12:00:35.558Z,3.90
2018-01-13T12:03:03.874Z,3.90
2018-01-13T12:05:32.142Z,3.80
2018-01-13T12:08:01.205Z,3.90
2018-01-13T12:10:29.499Z,3.80
2018-01-13T12:12:57.731Z,3.80
2018-01-13T12:15:26.017Z,3.90
2018-01-13T12:17:54.387Z,3.80
2018-01-13T12:20:22.634Z,3.90
2018-01-13T12:22:50.955Z,3.90
2018-01-13T12:25:19.238Z,4.00
2018-01-13T12:27:49.201Z,3.90
2018-01-13T12:30:18.218Z,4.00
2018-01-13T12:32:46.837Z,4.00
2018-01-13T12:35:15.906Z,4.00
2018-01-13T12:37:44.178Z,3.90
2018-01-13T12:40:12.453Z,3.90
2018-01-13T12:42:40.702Z,3.90
2018-01-13T12:45:09.711Z,4.00
2018-01-13T12:47:38.023Z,4.00
2018-01-13T12:50:06.368Z,4.10
2018-01-13T12:52:34.662Z,4.10
2018-01-13T12:55:03.283Z,4.10
2018-01-13T12:57:31.816Z,4.00
2018-01-13T13:00:00.205Z,4.00
2018-01-13T13:02:28.454Z,4.00
2018-01-13T13:04:56.755Z,4.00
2018-01-13T13:07:24.979Z,4.00
2018-01-13T13:09:53.415Z,4.00
2018-01-13T13:12:21.677Z,4.00
2018-01-13T13:14:49.929Z,4.00
2018-01-13T13:17:18.998Z,3.80
2018-01-13T13:19:47.310Z,3.80
2018-01-13T13:22:16.398Z,3.80
2018-01-13T13:24:44.702Z,3.80
2018-01-13T13:27:12.986Z,3.90
2018-01-13T13:29:41.325Z,3.90
2018-01-13T13:32:10.337Z,3.90
2018-01-13T13:34:38.567Z,3.80
2018-01-13T13:37:06.890Z,3.90
2018-01-13T13:39:35.294Z,3.90
2018-01-13T13:42:03.571Z,3.90
2018-01-13T13:44:31.810Z,3.80
2018-01-13T13:47:00.909Z,3.80
2018-01-13T13:49:29.194Z,3.80
2018-01-13T13:51:58.226Z,3.80
2018-01-13T13:54:26.501Z,3.80
2018-01-13T13:56:54.810Z,3.80
2018-01-13T13:59:23.094Z,3.80
2018-01-13T14:01:51.523Z,3.80
2018-01-13T14:04:19.766Z,3.80
2018-01-13T14:06:48.026Z,3.80
2018-01-13T14:09:16.391Z,3.80
2018-01-13T14:11:45.862Z,3.80
2018-01-13T14:14:14.847Z,3.70
2018-01-13T14:16:43.099Z,3.70
2018-01-13T14:19:11.452Z,3.80
2018-01-13T14:21:39.716Z,3.70
2018-01-13T14:24:07.973Z,3.70
2018-01-13T14:26:36.227Z,3.70
2018-01-13T14:29:05.287Z,3.70
2018-01-13T14:31:34.294Z,3.70
2018-01-13T14:34:03.330Z,3.60
2018-01-13T14:36:31.574Z,3.60
2018-01-13T14:38:59.826Z,3.60
2018-01-13T14:41:28.073Z,3.70
2018-01-13T14:43:56.323Z,3.60
2018-01-13T14:46:25.481Z,3.60
2018-01-13T14:48:53.781Z,3.60
2018-01-13T14:51:22.000Z,3.70
2018-01-13T14:53:50.250Z,3.50
2018-01-13T14:56:18.566Z,3.50
2018-01-13T14:58:46.879Z,3.50
2018-01-13T15:01:15.196Z,3.40
2018-01-13T15:03:43.374Z,3.40
2018-01-13T15:06:11.616Z,3.50
2018-01-13T15:08:43.129Z,3.40
2018-01-13T15:11:11.409Z,3.40
2018-01-13T15:13:39.706Z,3.40
2018-01-13T15:16:07.976Z,3.30
2018-01-13T15:18:36.246Z,3.30
2018-01-13T15:21:04.487Z,3.30
2018-01-13T15:23:32.762Z,3.20
2018-01-13T15:26:02.949Z,3.30
2018-01-13T15:28:31.743Z,3.20
2018-01-13T15:31:00.250Z,3.20
2018-01-13T15:33:28.558Z,3.20
2018-01-13T15:35:57.131Z,3.20
2018-01-13T15:38:25.407Z,3.10
2018-01-13T15:40:53.694Z,3.20
2018-01-13T15:43:22.024Z,3.20
2018-01-13T15:45:51.101Z,3.20
2018-01-13T15:48:19.773Z,3.20
2018-01-13T15:50:47.978Z,3.10
2018-01-13T15:53:17.074Z,3.10
2018-01-13T15:55:46.114Z,3.10
2018-01-13T15:58:14.371Z,3.10
2018-01-13T16:00:42.746Z,3.00
2018-01-13T16:03:11.022Z,3.10
2018-01-13T16:05:39.262Z,3.00
2018-01-13T16:08:07.532Z,2.90
2018-01-13T16:10:35.806Z,3.00
2018-01-13T16:13:04.098Z,3.00
2018-01-13T16:15:32.471Z,2.90
2018-01-13T16:18:00.786Z,2.80
2018-01-13T16:20:29.071Z,2.80
2018-01-13T16:22:58.070Z,2.80
2018-01-13T16:25:26.364Z,2.80
2018-01-13T16:27:54.760Z,2.80
2018-01-13T16:30:23.070Z,2.80
2018-01-13T16:32:52.667Z,2.70
2018-01-13T16:35:21.694Z,2.80
2018-01-13T16:37:50.259Z,2.80
2018-01-13T16:40:18.532Z,2.80
2018-01-13T16:42:47.526Z,2.70
2018-01-13T16:45:16.555Z,2.70
2018-01-13T16:47:45.541Z,2.70
2018-01-13T16:50:14.608Z,2.70
2018-01-13T16:52:43.785Z,2.60
2018-01-13T16:55:12.290Z,2.60
2018-01-13T16:57:40.519Z,2.70
2018-01-13T17:00:08.829Z,2.60
2018-01-13T17:02:37.134Z,2.60
2018-01-13T17:05:05.428Z,2.60
2018-01-13T17:07:33.685Z,2.60
2018-01-13T17:10:02.696Z,2.50
2018-01-13T17:12:31.724Z,2.40
2018-01-13T17:15:00.013Z,2.40
2018-01-13T17:17:28.298Z,2.40
2018-01-13T17:19:57.536Z,2.40
2018-01-13T17:22:25.796Z,2.40
2018-01-13T17:24:54.117Z,2.40
2018-01-13T17:27:22.376Z,2.50
2018-01-13T17:29:50.634Z,2.40
2018-01-13T17:32:18.860Z,2.40
2018-01-13T17:34:47.095Z,2.30
2018-01-13T17:37:15.402Z,2.30
2018-01-13T17:39:43.639Z,2.30
2018-01-13T17:42:11.891Z,2.30
2018-01-13T17:44:40.947Z,2.20
2018-01-13T17:47:09.189Z,2.10
2018-01-13T17:49:37.477Z,2.10
2018-01-13T17:52:05.764Z,2.10
2018-01-13T17:54:34.037Z,2.10
2018-01-13T17:57:02.281Z,2.10
2018-01-13T17:59:30.536Z,2.10
2018-01-13T18:01:59.554Z,2.20
2018-01-13T18:04:27.789Z,2.20
2018-01-13T18:06:57.730Z,2.20
2018-01-13T18:09:29.553Z,2.20
2018-01-13T18:11:59.103Z,2.10
2018-01-13T18:14:28.241Z,2.10
2018-01-13T18:16:56.518Z,2.10
2018-01-13T18:19:25.188Z,2.10
2018-01-13T18:21:53.478Z,2.00
2018-01-13T18:24:21.741Z,2.00
2018-01-13T18:26:50.136Z,1.90
2018-01-13T18:29:18.362Z,2.00
2018-01-13T18:31:47.354Z,1.80
2018-01-13T18:34:16.401Z,1.80
2018-01-13T18:36:44.654Z,1.80
2018-01-13T18:39:13.117Z,1.80
2018-01-13T18:41:41.376Z,1.90
2018-01-13T18:44:09.624Z,1.80
2018-01-13T18:46:38.071Z,1.70
2018-01-13T18:49:07.442Z,1.60
2018-01-13T18:51:36.449Z,1.70
2018-01-13T18:54:05.446Z,1.70
2018-01-13T18:56:34.545Z,1.60
2018-01-13T18:59:02.850Z,1.60
2018-01-13T19:01:31.124Z,1.60
2018-01-13T19:03:59.690Z,1.70
2018-01-13T19:06:27.930Z,1.60
2018-01-13T19:08:56.970Z,1.50
2018-01-13T19:11:26.166Z,1.50
2018-01-13T19:13:54.461Z,1.50
2018-01-13T19:16:22.731Z,1.50
2018-01-13T19:18:51.070Z,1.50
2018-01-13T19:21:20.278Z,1.50
2018-01-13T19:23:48.528Z,1.50
2018-01-13T19:26:17.645Z,1.40
2018-01-13T19:28:46.833Z,1.40
2018-01-13T19:31:15.838Z,1.30
2018-01-13T19:33:44.280Z,1.30
2018-01-13T19:36:12.586Z,1.30
2018-01-13T19:38:41.606Z,1.30
2018-01-13T19:41:09.936Z,1.30
2018-01-13T19:43:40.168Z,1.30
2018-01-13T19:46:09.164Z,1.30
2018-01-13T19:48:38.193Z,1.40
2018-01-13T19:51:06.466Z,1.40
2018-01-13T19:53:35.723Z,1.30
2018-01-13T19:56:04.106Z,1.20
2018-01-13T19:58:33.163Z,1.10
2018-01-13T20:01:01.459Z,1.10
2018-01-13T20:03:29.823Z,1.10
2018-01-13T20:05:58.107Z,1.10
2018-01-13T20:08:26.482Z,1.00
2018-01-13T20:10:55.909Z,1.00
2018-01-13T20:13:24.141Z,1.00
2018-01-13T20:15:52.970Z,0.90
2018-01-13T20:18:21.355Z,1.00
2018-01-13T20:20:49.578Z,0.90
2018-01-13T20:23:18.372Z,1.00
2018-01-13T20:25:47.390Z,0.90
2018-01-13T20:28:15.642Z,0.80
2018-01-13T20:30:43.918Z,0.90
2018-01-13T20:33:12.231Z,0.80
2018-01-13T20:35:40.458Z,0.90
2018-01-13T20:38:08.695Z,0.90
2018-01-13T20:40:36.989Z,0.90
2018-01-13T20:43:05.495Z,0.90
2018-01-13T20:45:33.728Z,0.90
2018-01-13T20:48:02.282Z,0.70
2018-01-13T20:50:30.552Z,0.80
2018-01-13T20:52:59.554Z,0.90
2018-01-13T20:55:28.099Z,0.80
2018-01-13T20:57:56.493Z,0.80
2018-01-13T21:00:24.758Z,0.80
2018-01-13T21:02:54.409Z,0.80
2018-01-13T21:05:22.749Z,0.80
2018-01-13T21:07:51.146Z,0.80
2018-01-13T21:10:20.182Z,0.90
2018-01-13T21:12:48.420Z,0.90
2018-01-13T21:15:17.475Z,0.90
2018-01-13T21:17:45.755Z,0.90
2018-01-13T21:20:14.086Z,0.90
2018-01-13T21:22:43.121Z,1.00
2018-01-13T21:25:11.623Z,1.00
2018-01-13T21:27:39.986Z,1.00
2018-01-13T21:30:08.378Z,1.00
2018-01-13T21:32:36.807Z,1.00
2018-01-13T21:35:05.192Z,1.00
2018-01-13T21:37:33.572Z,1.00
2018-01-13T21:40:01.984Z,1.10
2018-01-13T21:42:30.342Z,1.00
2018-01-13T21:44:58.678Z,1.00
2018-01-13T21:47:27.806Z,1.10
2018-01-13T21:49:56.098Z,1.10
2018-01-13T21:52:24.315Z,1.10
2018-01-13T21:54:52.553Z,1.00
2018-01-13T21:57:20.774Z,1.10
2018-01-13T21:59:49.774Z,1.10
2018-01-13T22:02:18.842Z,1.20
2018-01-13T22:04:47.077Z,1.20
2018-01-13T22:07:16.106Z,1.20
2018-01-13T22:09:45.256Z,1.10
2018-01-13T22:12:13.507Z,1.10
2018-01-13T22:14:41.759Z,1.10
2018-01-13T22:17:10.542Z,1.20
2018-01-13T22:19:39.072Z,1.20
2018-01-13T22:22:07.784Z,1.20
2018-01-13T22:24:36.046Z,1.20
2018-01-13T22:27:05.206Z,1.10
2018-01-13T22:29:34.192Z,1.10
2018-01-13T22:32:03.298Z,1.10
2018-01-13T22:34:34.240Z,1.10
2018-01-13T22:37:02.484Z,1.10
2018-01-13T22:39:30.765Z,1.20
2018-01-13T22:41:59.072Z,1.10
2018-01-13T22:44:28.072Z,1.10
2018-01-13T22:46:57.095Z,1.10
2018-01-13T22:49:25.335Z,1.10
2018-01-13T22:51:54.348Z,1.10
2018-01-13T22:54:23.377Z,1.10
2018-01-13T22:56:51.695Z,1.10
2018-01-13T22:59:20.688Z,1.10
2018-01-13T23:01:48.926Z,1.10
2018-01-13T23:04:17.201Z,1.10
2018-01-13T23:06:45.475Z,1.10
2018-01-13T23:09:13.834Z,1.10
2018-01-13T23:11:42.164Z,1.10
2018-01-13T23:14:11.160Z,1.10
2018-01-13T23:16:40.960Z,1.10
2018-01-13T23:19:09.970Z,1.10
2018-01-13T23:21:38.317Z,1.10
2018-01-13T23:24:06.553Z,1.10
2018-01-13T23:26:34.888Z,1.20
2018-01-13T23:29:03.118Z,1.10
2018-01-13T23:31:31.365Z,1.20
2018-01-13T23:33:59.621Z,1.20
2018-01-13T23:36:28.387Z,1.20
2018-01-13T23:38:57.721Z,1.10
2018-01-13T23:41:26.715Z,1.20
2018-01-13T23:43:55.750Z,1.20
2018-01-13T23:46:24.833Z,1.20
2018-01-13T23:48:53.059Z,1.20
2018-01-13T23:51:21.382Z,1.10
2018-01-13T23:53:49.630Z,1.10
2018-01-13T23:56:18.641Z,1.10
2018-01-13T23:58:47.654Z,1.20
